Wetterdaten: Woche 18.05.15 - 24.05.15 (KW21)
Datum Zeit Temp. A. Feuchte A. Luftdruck Regen Wind Richtung Sonnenschein ET UV Solar Taupunkt Windchill Windben Empfang
18.05.2015 00:00 9,4 C 97 % 1021,7 hPa 0,0 l/m 0,0 km/h (0 Bft) N 0,00 h 0,000 mm 0,0 UV-I 0 W/m 9,0 C 9,4 C 0,0 km/h (0 Bft) 0,00 %
18.05.2015 01:00 9,1 C 98 % 1021,3 hPa 0,0 l/m 0,0 km/h (0 Bft) N 0,00 h 0,000 mm 0,0 UV-I 0 W/m 8,8 C 9,1 C 0,0 km/h (0 Bft) 0,00 %
18.05.2015 02:00 8,9 C 99 % 1020,6 hPa 0,0 l/m 0,0 km/h (0 Bft) N 0,00 h 0,000 mm 0,0 UV-I 0 W/m 8,8 C 8,9 C 0,0 km/h (0 Bft) 0,00 %
18.05.2015 03:00 8,1 C 99 % 1019,9 hPa 0,0 l/m 0,0 km/h (0 Bft) N 0,00 h 0,000 mm 0,0 UV-I 0 W/m 8,0 C 8,1 C 0,0 km/h (0 Bft) 0,00 %
18.05.2015 04:00 7,8 C 99 % 1019,5 hPa 0,0 l/m 0,0 km/h (0 Bft) N 0,00 h 0,000 mm 0,0 UV-I 0 W/m 7,6 C 7,8 C 0,0 km/h (0 Bft) 0,00 %
18.05.2015 05:00 7,8 C 99 % 1019,0 hPa 0,0 l/m 0,2 km/h (0 Bft) N 0,00 h 0,000 mm 0,0 UV-I 6 W/m 7,6 C 7,8 C 1,0 km/h (0 Bft) 0,00 %
18.05.2015 06:00 9,2 C 99 % 1018,5 hPa 0,0 l/m 0,1 km/h (0 Bft) O 1,00 h 0,000 mm 1,0 UV-I 144 W/m 9,1 C 9,2 C 1,0 km/h (0 Bft) 0,00 %
18.05.2015 07:00 10,8 C 89 % 1017,8 hPa 0,0 l/m 2,4 km/h (1 Bft) O 1,00 h 0,000 mm 1,0 UV-I 270 W/m 9,0 C 10,8 C 4,0 km/h (1 Bft) 0,00 %
18.05.2015 08:00 12,2 C 80 % 1016,9 hPa 0,0 l/m 3,2 km/h (1 Bft) O-NO 1,00 h 0,000 mm 2,0 UV-I 380 W/m 8,8 C 12,2 C 5,9 km/h (2 Bft) 0,00 %
18.05.2015 09:00 14,2 C 71 % 1015,8 hPa 0,0 l/m 2,0 km/h (1 Bft) SO 1,00 h 0,000 mm 3,0 UV-I 474 W/m 9,0 C 14,2 C 5,0 km/h (1 Bft) 0,00 %
18.05.2015 10:00 16,1 C 65 % 1014,6 hPa 0,0 l/m 3,1 km/h (1 Bft) O-SO 1,00 h 0,000 mm 4,0 UV-I 629 W/m 9,6 C 16,1 C 5,0 km/h (1 Bft) 0,00 %
18.05.2015 11:00 18,2 C 59 % 1013,4 hPa 0,0 l/m 4,4 km/h (1 Bft) O-SO 1,00 h 0,000 mm 5,3 UV-I 719 W/m 9,9 C 17,9 C 7,9 km/h (2 Bft) 0,00 %
18.05.2015 12:00 19,5 C 51 % 1012,1 hPa 0,0 l/m 7,6 km/h (2 Bft) O 1,00 h 0,000 mm 6,0 UV-I 777 W/m 9,0 C 19,0 C 12,9 km/h (3 Bft) 0,00 %
18.05.2015 13:00 20,7 C 48 % 1010,5 hPa 0,0 l/m 4,2 km/h (1 Bft) O 1,00 h 0,000 mm 6,0 UV-I 839 W/m 9,1 C 20,6 C 7,9 km/h (2 Bft) 0,00 %
18.05.2015 14:00 22,0 C 47 % 1009,2 hPa 0,0 l/m 3,6 km/h (1 Bft) O 1,00 h 0,000 mm 5,0 UV-I 880 W/m 10,0 C 22,0 C 6,9 km/h (2 Bft) 0,00 %
18.05.2015 15:00 22,8 C 48 % 1007,9 hPa 0,0 l/m 4,5 km/h (1 Bft) O-NO 1,00 h 0,000 mm 3,7 UV-I 872 W/m 11,0 C 22,5 C 6,9 km/h (2 Bft) 0,00 %
18.05.2015 16:00 23,1 C 48 % 1006,8 hPa 0,0 l/m 4,7 km/h (1 Bft) O-SO 1,00 h 0,000 mm 2,0 UV-I 838 W/m 11,4 C 22,9 C 5,9 km/h (2 Bft) 0,00 %
18.05.2015 17:00 23,1 C 52 % 1005,7 hPa 0,0 l/m 6,1 km/h (2 Bft) O-SO 1,00 h 0,000 mm 1,0 UV-I 755 W/m 12,6 C 22,8 C 8,9 km/h (2 Bft) 0,00 %
18.05.2015 18:00 22,9 C 53 % 1004,7 hPa 0,0 l/m 5,5 km/h (1 Bft) O-SO 1,00 h 0,000 mm 1,0 UV-I 605 W/m 12,7 C 22,7 C 8,9 km/h (2 Bft) 0,00 %
18.05.2015 19:00 22,4 C 56 % 1004,3 hPa 0,0 l/m 1,3 km/h (1 Bft) N 1,00 h 0,000 mm 1,0 UV-I 326 W/m 13,0 C 22,4 C 3,0 km/h (1 Bft) 0,00 %
18.05.2015 20:00 20,2 C 64 % 1004,3 hPa 0,0 l/m 0,0 km/h (0 Bft) N 0,25 h 0,000 mm 0,0 UV-I 18 W/m 13,1 C 20,2 C 0,0 km/h (0 Bft) 0,00 %
18.05.2015 21:00 18,6 C 68 % 1004,7 hPa 0,0 l/m 0,0 km/h (0 Bft) N 0,00 h 0,000 mm 0,0 UV-I 0 W/m 12,6 C 18,6 C 0,0 km/h (0 Bft) 0,00 %
18.05.2015 22:00 17,4 C 70 % 1004,9 hPa 0,0 l/m 0,0 km/h (0 Bft) N 0,00 h 0,000 mm 0,0 UV-I 0 W/m 11,9 C 17,4 C 0,0 km/h (0 Bft) 0,00 %
18.05.2015 23:00 15,3 C 81 % 1005,6 hPa 0,0 l/m 0,0 km/h (0 Bft) N 0,00 h 0,000 mm 0,0 UV-I 0 W/m 12,0 C 15,3 C 0,0 km/h (0 Bft) 0,00 %
19.05.2015 00:00 15,3 C 83 % 1006,1 hPa 0,0 l/m 0,0 km/h (0 Bft) N 0,00 h 0,000 mm 0,0 UV-I 0 W/m 12,4 C 15,3 C 0,0 km/h (0 Bft) 0,00 %
19.05.2015 01:00 15,6 C 83 % 1005,8 hPa 0,0 l/m 0,0 km/h (0 Bft) N 0,00 h 0,000 mm 0,0 UV-I 0 W/m 12,7 C 15,6 C 0,0 km/h (0 Bft) 0,00 %
19.05.2015 02:00 15,6 C 84 % 1004,7 hPa 0,0 l/m 0,1 km/h (0 Bft) N 0,00 h 0,000 mm 0,0 UV-I 0 W/m 12,9 C 15,6 C 1,0 km/h (0 Bft) 0,00 %
19.05.2015 03:00 15,3 C 87 % 1004,6 hPa 0,0 l/m 0,0 km/h (0 Bft) N 0,00 h 0,000 mm 0,0 UV-I 0 W/m 13,1 C 15,3 C 0,0 km/h (0 Bft) 0,00 %
19.05.2015 04:00 14,8 C 90 % 1004,5 hPa 0,0 l/m 0,0 km/h (0 Bft) N 0,00 h 0,000 mm 0,0 UV-I 0 W/m 13,1 C 14,8 C 0,0 km/h (0 Bft) 0,00 %
19.05.2015 05:00 14,4 C 93 % 1005,0 hPa 0,0 l/m 0,0 km/h (0 Bft) N 0,00 h 0,000 mm 0,0 UV-I 0 W/m 13,3 C 14,4 C 0,0 km/h (0 Bft) 0,00 %
19.05.2015 06:00 15,2 C 85 % 1006,3 hPa 0,0 l/m 1,7 km/h (1 Bft) SW 0,00 h 0,000 mm 1,0 UV-I 70 W/m 12,8 C 15,2 C 4,0 km/h (1 Bft) 0,00 %
19.05.2015 07:00 15,8 C 79 % 1007,3 hPa 0,0 l/m 2,1 km/h (1 Bft) W-SW 0,00 h 0,000 mm 1,0 UV-I 64 W/m 12,2 C 15,8 C 4,9 km/h (1 Bft) 0,00 %
19.05.2015 08:00 15,8 C 79 % 1007,9 hPa 0,0 l/m 1,9 km/h (1 Bft) S-SW 0,00 h 0,000 mm 1,0 UV-I 69 W/m 12,2 C 15,8 C 5,0 km/h (1 Bft) 0,00 %
19.05.2015 09:00 15,7 C 76 % 1008,4 hPa 0,0 l/m 2,1 km/h (1 Bft) S-SW 0,00 h 0,000 mm 1,0 UV-I 96 W/m 11,5 C 15,7 C 5,0 km/h (1 Bft) 0,00 %
19.05.2015 10:00 15,3 C 73 % 1009,3 hPa 0,0 l/m 0,4 km/h (0 Bft) W-SW 0,00 h 0,000 mm 1,0 UV-I 147 W/m 10,4 C 15,3 C 2,0 km/h (1 Bft) 0,00 %
19.05.2015 11:00 15,3 C 70 % 1009,9 hPa 0,0 l/m 1,0 km/h (0 Bft) W-SW 0,00 h 0,000 mm 1,0 UV-I 151 W/m 9,9 C 15,3 C 3,0 km/h (1 Bft) 0,00 %
19.05.2015 12:00 15,5 C 71 % 1009,9 hPa 0,0 l/m 1,1 km/h (1 Bft) W-SW 0,00 h 0,000 mm 1,0 UV-I 142 W/m 10,3 C 15,5 C 2,0 km/h (1 Bft) 0,00 %
19.05.2015 13:00 15,2 C 76 % 1009,8 hPa 0,0 l/m 0,0 km/h (0 Bft) N 0,00 h 0,000 mm 1,0 UV-I 121 W/m 10,9 C 15,2 C 0,0 km/h (0 Bft) 0,00 %
19.05.2015 14:00 14,9 C 78 % 1009,6 hPa 0,0 l/m 0,0 km/h (0 Bft) N 0,00 h 0,000 mm 1,0 UV-I 159 W/m 11,0 C 14,9 C 0,0 km/h (0 Bft) 0,00 %
19.05.2015 15:00 15,1 C 80 % 1009,0 hPa 0,0 l/m 0,0 km/h (0 Bft) N 0,00 h 0,000 mm 1,0 UV-I 127 W/m 11,7 C 15,1 C 0,0 km/h (0 Bft) 0,00 %
19.05.2015 16:00 14,5 C 87 % 1008,3 hPa 0,3 l/m 0,0 km/h (0 Bft) N 0,00 h 0,000 mm 1,0 UV-I 68 W/m 12,2 C 14,5 C 0,0 km/h (0 Bft) 0,00 %
19.05.2015 17:00 14,4 C 90 % 1008,0 hPa 0,0 l/m 0,0 km/h (0 Bft) N 0,00 h 0,000 mm 1,0 UV-I 95 W/m 12,7 C 14,4 C 0,0 km/h (0 Bft) 0,00 %
19.05.2015 18:00 14,3 C 91 % 1008,2 hPa 0,0 l/m 0,9 km/h (0 Bft) N-NO 0,00 h 0,000 mm 0,0 UV-I 43 W/m 12,7 C 14,3 C 2,0 km/h (1 Bft) 0,00 %
19.05.2015 19:00 13,9 C 92 % 1008,7 hPa 0,3 l/m 0,0 km/h (0 Bft) N 0,00 h 0,000 mm 0,0 UV-I 10 W/m 12,6 C 13,9 C 0,0 km/h (0 Bft) 0,00 %
19.05.2015 20:00 13,6 C 94 % 1009,6 hPa 0,3 l/m 0,0 km/h (0 Bft) N 0,00 h 0,000 mm 0,0 UV-I 0 W/m 12,5 C 13,6 C 0,0 km/h (0 Bft) 0,00 %
19.05.2015 21:00 12,8 C 94 % 1010,4 hPa 0,3 l/m 0,0 km/h (0 Bft) N 0,00 h 0,000 mm 0,0 UV-I 0 W/m 11,9 C 12,8 C 0,0 km/h (0 Bft) 0,00 %
19.05.2015 22:00 12,1 C 94 % 1010,7 hPa 1,2 l/m 0,0 km/h (0 Bft) N 0,00 h 0,000 mm 0,0 UV-I 0 W/m 11,2 C 12,1 C 0,0 km/h (0 Bft) 0,00 %
19.05.2015 23:00 12,0 C 96 % 1010,5 hPa 0,0 l/m 0,0 km/h (0 Bft) N 0,00 h 0,000 mm 0,0 UV-I 0 W/m 11,4 C 12,0 C 0,0 km/h (0 Bft) 0,00 %
20.05.2015 00:00 12,1 C 97 % 1010,5 hPa 0,0 l/m 0,0 km/h (0 Bft) N 0,00 h 0,000 mm 0,0 UV-I 0 W/m 11,6 C 12,1 C 0,0 km/h (0 Bft) 0,00 %
20.05.2015 01:00 12,0 C 97 % 1009,8 hPa 0,0 l/m 0,1 km/h (0 Bft) SW 0,00 h 0,000 mm 0,0 UV-I 0 W/m 11,5 C 12,0 C 1,0 km/h (0 Bft) 0,00 %
20.05.2015 02:00 11,7 C 97 % 1009,3 hPa 0,0 l/m 0,4 km/h (0 Bft) N 0,00 h 0,000 mm 0,0 UV-I 0 W/m 11,1 C 11,7 C 1,0 km/h (0 Bft) 0,00 %
20.05.2015 03:00 11,7 C 97 % 1009,4 hPa 0,6 l/m 0,2 km/h (0 Bft) N 0,00 h 0,000 mm 0,0 UV-I 0 W/m 11,2 C 11,7 C 1,0 km/h (0 Bft) 0,00 %
20.05.2015 04:00 11,6 C 97 % 1009,0 hPa 0,0 l/m 0,0 km/h (0 Bft) N 0,00 h 0,000 mm 0,0 UV-I 0 W/m 11,2 C 11,6 C 0,0 km/h (0 Bft) 0,00 %
20.05.2015 05:00 11,6 C 97 % 1008,7 hPa 0,0 l/m 0,0 km/h (0 Bft) N 0,00 h 0,000 mm 0,0 UV-I 0 W/m 11,1 C 11,6 C 0,0 km/h (0 Bft) 0,00 %
20.05.2015 06:00 11,5 C 97 % 1008,8 hPa 0,0 l/m 0,0 km/h (0 Bft) N 0,00 h 0,000 mm 0,0 UV-I 3 W/m 11,1 C 11,5 C 0,0 km/h (0 Bft) 0,00 %
20.05.2015 07:00 11,2 C 98 % 1008,8 hPa 0,3 l/m 0,0 km/h (0 Bft) N 0,00 h 0,000 mm 0,0 UV-I 21 W/m 10,8 C 11,2 C 0,0 km/h (0 Bft) 0,00 %
20.05.2015 08:00 10,8 C 97 % 1009,4 hPa 2,4 l/m 0,6 km/h (0 Bft) N 0,00 h 0,000 mm 1,0 UV-I 46 W/m 10,3 C 10,8 C 4,0 km/h (1 Bft) 0,00 %
20.05.2015 09:00 10,0 C 98 % 1010,0 hPa 2,4 l/m 2,9 km/h (1 Bft) S-SW 0,00 h 0,000 mm 1,0 UV-I 38 W/m 9,6 C 9,4 C 5,9 km/h (2 Bft) 0,00 %
20.05.2015 10:00 9,4 C 98 % 1010,7 hPa 0,6 l/m 0,8 km/h (0 Bft) W-SW 0,00 h 0,000 mm 1,0 UV-I 89 W/m 9,1 C 9,4 C 3,0 km/h (1 Bft) 0,00 %
20.05.2015 11:00 9,5 C 97 % 1011,6 hPa 2,1 l/m 0,6 km/h (0 Bft) S-SW 0,00 h 0,000 mm 1,0 UV-I 60 W/m 9,0 C 9,5 C 3,0 km/h (1 Bft) 0,00 %
20.05.2015 12:00 9,5 C 97 % 1012,6 hPa 2,1 l/m 4,0 km/h (1 Bft) SW 0,00 h 0,000 mm 1,0 UV-I 116 W/m 9,0 C 9,0 C 5,9 km/h (2 Bft) 0,00 %
20.05.2015 13:00 9,7 C 95 % 1013,3 hPa 0,6 l/m 3,6 km/h (1 Bft) O-NO 0,00 h 0,000 mm 1,3 UV-I 212 W/m 9,0 C 9,6 C 5,9 km/h (2 Bft) 0,00 %
20.05.2015 14:00 9,8 C 92 % 1013,6 hPa 0,6 l/m 3,2 km/h (1 Bft) SW 0,00 h 0,000 mm 1,3 UV-I 175 W/m 8,5 C 9,8 C 6,9 km/h (2 Bft) 0,00 %
20.05.2015 15:00 9,3 C 93 % 1014,2 hPa 0,6 l/m 1,5 km/h (1 Bft) S-SW 0,00 h 0,000 mm 1,0 UV-I 120 W/m 8,1 C 9,3 C 4,0 km/h (1 Bft) 0,00 %
20.05.2015 16:00 8,8 C 93 % 1014,7 hPa 0,9 l/m 1,8 km/h (1 Bft) W-SW 0,00 h 0,000 mm 1,0 UV-I 105 W/m 7,7 C 8,8 C 3,0 km/h (1 Bft) 0,00 %
20.05.2015 17:00 8,5 C 95 % 1015,5 hPa 0,9 l/m 0,7 km/h (0 Bft) SW 0,00 h 0,000 mm 1,0 UV-I 51 W/m 7,7 C 8,5 C 3,0 km/h (1 Bft) 0,00 %
20.05.2015 18:00 8,1 C 96 % 1016,2 hPa 1,5 l/m 3,1 km/h (1 Bft) W-SW 0,00 h 0,000 mm 1,0 UV-I 52 W/m 7,5 C 8,0 C 5,9 km/h (2 Bft) 0,00 %
20.05.2015 19:00 7,9 C 96 % 1016,9 hPa 0,3 l/m 0,6 km/h (0 Bft) N 0,00 h 0,000 mm 0,0 UV-I 11 W/m 7,4 C 7,9 C 2,0 km/h (1 Bft) 0,00 %
20.05.2015 20:00 7,8 C 97 % 1017,3 hPa 0,9 l/m 0,8 km/h (0 Bft) SW 0,00 h 0,000 mm 0,0 UV-I 0 W/m 7,4 C 7,8 C 3,0 km/h (1 Bft) 0,00 %
20.05.2015 21:00 7,6 C 97 % 1018,1 hPa 0,9 l/m 0,9 km/h (0 Bft) SW 0,00 h 0,000 mm 0,0 UV-I 0 W/m 7,2 C 7,6 C 3,0 km/h (1 Bft) 0,00 %
20.05.2015 22:00 7,3 C 97 % 1018,2 hPa 0,6 l/m 0,0 km/h (0 Bft) N 0,00 h 0,000 mm 0,0 UV-I 0 W/m 6,9 C 7,3 C 0,0 km/h (0 Bft) 0,00 %
20.05.2015 23:00 7,2 C 97 % 1018,2 hPa 0,3 l/m 0,1 km/h (0 Bft) N 0,00 h 0,000 mm 0,0 UV-I 0 W/m 6,7 C 7,2 C 1,0 km/h (0 Bft) 0,00 %
21.05.2015 00:00 7,1 C 97 % 1018,4 hPa 0,0 l/m 0,7 km/h (0 Bft) W-SW 0,00 h 0,000 mm 0,0 UV-I 0 W/m 6,7 C 7,1 C 2,0 km/h (1 Bft) 0,00 %
21.05.2015 01:00 7,2 C 97 % 1018,5 hPa 0,3 l/m 0,1 km/h (0 Bft) W-SW 0,00 h 0,000 mm 0,0 UV-I 0 W/m 6,8 C 7,2 C 1,0 km/h (0 Bft) 0,00 %
21.05.2015 02:00 7,1 C 97 % 1018,7 hPa 0,3 l/m 0,3 km/h (0 Bft) N 0,00 h 0,000 mm 0,0 UV-I 0 W/m 6,7 C 7,1 C 1,0 km/h (0 Bft) 0,00 %
21.05.2015 03:00 7,0 C 97 % 1018,8 hPa 0,3 l/m 0,2 km/h (0 Bft) SW 0,00 h 0,000 mm 0,0 UV-I 0 W/m 6,6 C 7,0 C 2,0 km/h (1 Bft) 0,00 %
21.05.2015 04:00 6,9 C 97 % 1019,0 hPa 0,9 l/m 0,7 km/h (0 Bft) W-SW 0,00 h 0,000 mm 0,0 UV-I 0 W/m 6,5 C 6,9 C 2,0 km/h (1 Bft) 0,00 %
21.05.2015 05:00 6,9 C 97 % 1019,7 hPa 0,9 l/m 0,3 km/h (0 Bft) N 0,00 h 0,000 mm 0,0 UV-I 0 W/m 6,5 C 6,9 C 2,0 km/h (1 Bft) 0,00 %
21.05.2015 06:00 6,8 C 97 % 1020,2 hPa 1,2 l/m 0,7 km/h (0 Bft) O-SO 0,00 h 0,000 mm 0,0 UV-I 14 W/m 6,4 C 6,8 C 2,0 km/h (1 Bft) 0,00 %
21.05.2015 07:00 7,2 C 97 % 1020,4 hPa 0,9 l/m 0,5 km/h (0 Bft) W-SW 0,00 h 0,000 mm 1,0 UV-I 81 W/m 6,8 C 7,2 C 2,0 km/h (1 Bft) 0,00 %
21.05.2015 08:00 7,5 C 97 % 1020,9 hPa 0,0 l/m 0,0 km/h (0 Bft) N 0,00 h 0,000 mm 1,0 UV-I 84 W/m 7,0 C 7,5 C 0,0 km/h (0 Bft) 0,00 %
21.05.2015 09:00 7,8 C 95 % 1021,3 hPa 0,0 l/m 1,4 km/h (1 Bft) SW 0,00 h 0,000 mm 1,0 UV-I 93 W/m 7,0 C 7,8 C 4,0 km/h (1 Bft) 0,00 %
21.05.2015 10:00 8,2 C 94 % 1021,6 hPa 0,3 l/m 0,1 km/h (0 Bft) N 0,00 h 0,000 mm 1,0 UV-I 123 W/m 7,3 C 8,2 C 1,0 km/h (0 Bft) 0,00 %
21.05.2015 11:00 8,5 C 93 % 1021,9 hPa 0,3 l/m 0,6 km/h (0 Bft) S 0,00 h 0,000 mm 1,0 UV-I 140 W/m 7,4 C 8,5 C 2,0 km/h (1 Bft) 0,00 %
21.05.2015 12:00 9,0 C 91 % 1021,8 hPa 0,0 l/m 0,0 km/h (0 Bft) N 0,00 h 0,000 mm 1,0 UV-I 119 W/m 7,7 C 9,0 C 0,0 km/h (0 Bft) 0,00 %
21.05.2015 13:00 9,4 C 90 % 1021,7 hPa 0,0 l/m 0,0 km/h (0 Bft) N 0,00 h 0,000 mm 1,0 UV-I 116 W/m 7,9 C 9,4 C 0,0 km/h (0 Bft) 0,00 %
21.05.2015 14:00 9,4 C 92 % 1021,7 hPa 0,3 l/m 0,3 km/h (0 Bft) W-SW 0,00 h 0,000 mm 1,0 UV-I 72 W/m 8,1 C 9,4 C 1,0 km/h (0 Bft) 0,00 %
21.05.2015 15:00 9,4 C 94 % 1022,0 hPa 0,0 l/m 0,1 km/h (0 Bft) W-SW 0,00 h 0,000 mm 1,0 UV-I 103 W/m 8,5 C 9,4 C 1,0 km/h (0 Bft) 0,00 %
21.05.2015 16:00 9,6 C 93 % 1022,0 hPa 0,0 l/m 0,6 km/h (0 Bft) N 0,00 h 0,000 mm 1,0 UV-I 123 W/m 8,6 C 9,6 C 2,0 km/h (1 Bft) 0,00 %
21.05.2015 17:00 9,5 C 93 % 1022,3 hPa 0,6 l/m 0,0 km/h (0 Bft) N 0,00 h 0,000 mm 0,0 UV-I 59 W/m 8,4 C 9,5 C 0,0 km/h (0 Bft) 0,00 %
21.05.2015 18:00 9,4 C 96 % 1022,8 hPa 0,6 l/m 0,0 km/h (0 Bft) N 0,00 h 0,000 mm 0,0 UV-I 30 W/m 8,8 C 9,4 C 0,0 km/h (0 Bft) 0,00 %
21.05.2015 19:00 9,4 C 97 % 1023,2 hPa 0,6 l/m 1,2 km/h (1 Bft) W-SW 0,00 h 0,000 mm 0,0 UV-I 14 W/m 9,0 C 9,4 C 3,0 km/h (1 Bft) 0,00 %
21.05.2015 20:00 9,2 C 98 % 1023,8 hPa 0,3 l/m 0,0 km/h (0 Bft) N 0,00 h 0,000 mm 0,0 UV-I 0 W/m 8,9 C 9,2 C 0,0 km/h (0 Bft) 0,00 %
21.05.2015 21:00 9,1 C 99 % 1024,7 hPa 0,0 l/m 0,0 km/h (0 Bft) N 0,00 h 0,000 mm 0,0 UV-I 0 W/m 9,0 C 9,1 C 0,0 km/h (0 Bft) 0,00 %
21.05.2015 22:00 9,0 C 99 % 1024,9 hPa 0,3 l/m 0,0 km/h (0 Bft) N 0,00 h 0,000 mm 0,0 UV-I 0 W/m 8,9 C 9,0 C 0,0 km/h (0 Bft) 0,00 %
21.05.2015 23:00 9,0 C 99 % 1025,0 hPa 0,0 l/m 0,0 km/h (0 Bft) N 0,00 h 0,000 mm 0,0 UV-I 0 W/m 8,8 C 9,0 C 0,0 km/h (0 Bft) 0,00 %
22.05.2015 00:00 8,9 C 99 % 1024,9 hPa 0,0 l/m 0,2 km/h (0 Bft) N 0,00 h 0,000 mm 0,0 UV-I 0 W/m 8,7 C 8,9 C 1,0 km/h (0 Bft) 0,00 %
22.05.2015 01:00 8,8 C 99 % 1025,1 hPa 0,0 l/m 0,2 km/h (0 Bft) SW 0,00 h 0,000 mm 0,0 UV-I 0 W/m 8,6 C 8,8 C 1,0 km/h (0 Bft) 0,00 %
22.05.2015 02:00 8,7 C 99 % 1025,0 hPa 0,0 l/m 0,4 km/h (0 Bft) N 0,00 h 0,000 mm 0,0 UV-I 0 W/m 8,5 C 8,7 C 2,0 km/h (1 Bft) 0,00 %
22.05.2015 03:00 8,6 C 99 % 1025,0 hPa 0,0 l/m 0,2 km/h (0 Bft) N 0,00 h 0,000 mm 0,0 UV-I 0 W/m 8,5 C 8,6 C 2,0 km/h (1 Bft) 0,00 %
22.05.2015 04:00 8,7 C 99 % 1024,8 hPa 0,0 l/m 0,1 km/h (0 Bft) N 0,00 h 0,000 mm 0,0 UV-I 0 W/m 8,6 C 8,7 C 1,0 km/h (0 Bft) 0,00 %
22.05.2015 05:00 8,7 C 99 % 1024,9 hPa 0,0 l/m 0,0 km/h (0 Bft) N 0,00 h 0,000 mm 0,0 UV-I 1 W/m 8,6 C 8,7 C 0,0 km/h (0 Bft) 0,00 %
22.05.2015 06:00 8,9 C 99 % 1024,8 hPa 0,0 l/m 0,0 km/h (0 Bft) N 0,00 h 0,000 mm 0,0 UV-I 30 W/m 8,7 C 8,9 C 0,0 km/h (0 Bft) 0,00 %
22.05.2015 07:00 9,2 C 99 % 1024,9 hPa 0,0 l/m 0,0 km/h (0 Bft) N 0,00 h 0,000 mm 1,0 UV-I 74 W/m 9,0 C 9,2 C 0,0 km/h (0 Bft) 0,00 %
22.05.2015 08:00 10,0 C 96 % 1024,9 hPa 0,0 l/m 0,0 km/h (0 Bft) N 0,00 h 0,000 mm 1,0 UV-I 125 W/m 9,4 C 10,0 C 0,0 km/h (0 Bft) 0,00 %
22.05.2015 09:00 11,8 C 85 % 1024,6 hPa 0,0 l/m 0,0 km/h (0 Bft) N 0,00 h 0,000 mm 1,7 UV-I 289 W/m 9,2 C 11,8 C 0,0 km/h (0 Bft) 0,00 %
22.05.2015 10:00 13,1 C 75 % 1023,9 hPa 0,0 l/m 0,0 km/h (0 Bft) N 0,00 h 0,000 mm 2,3 UV-I 326 W/m 8,7 C 13,1 C 0,0 km/h (0 Bft) 0,00 %
22.05.2015 11:00 14,3 C 67 % 1023,3 hPa 0,0 l/m 0,0 km/h (0 Bft) N 0,00 h 0,000 mm 1,3 UV-I 259 W/m 8,2 C 14,3 C 0,0 km/h (0 Bft) 0,00 %
22.05.2015 12:00 14,5 C 68 % 1022,9 hPa 0,0 l/m 0,0 km/h (0 Bft) N 0,00 h 0,000 mm 1,0 UV-I 166 W/m 8,7 C 14,5 C 0,0 km/h (0 Bft) 0,00 %
22.05.2015 13:00 13,3 C 77 % 1022,4 hPa 0,0 l/m 0,0 km/h (0 Bft) N 0,00 h 0,000 mm 1,0 UV-I 134 W/m 9,3 C 13,3 C 0,0 km/h (0 Bft) 0,00 %
22.05.2015 14:00 12,7 C 82 % 1022,3 hPa 0,6 l/m 0,0 km/h (0 Bft) N 0,00 h 0,000 mm 1,3 UV-I 149 W/m 9,6 C 12,7 C 0,0 km/h (0 Bft) 0,00 %
22.05.2015 15:00 11,9 C 86 % 1022,3 hPa 0,6 l/m 0,0 km/h (0 Bft) N 0,00 h 0,000 mm 1,0 UV-I 121 W/m 9,6 C 11,9 C 0,0 km/h (0 Bft) 0,00 %
22.05.2015 16:00 12,6 C 84 % 1021,8 hPa 0,0 l/m 0,0 km/h (0 Bft) N 0,00 h 0,000 mm 1,3 UV-I 248 W/m 9,9 C 12,6 C 0,0 km/h (0 Bft) 0,00 %
22.05.2015 17:00 12,4 C 82 % 1021,1 hPa 0,3 l/m 0,0 km/h (0 Bft) N 0,00 h 0,000 mm 1,0 UV-I 87 W/m 9,5 C 12,4 C 0,0 km/h (0 Bft) 0,00 %
22.05.2015 18:00 11,6 C 87 % 1021,1 hPa 0,0 l/m 0,0 km/h (0 Bft) N 0,00 h 0,000 mm 0,0 UV-I 25 W/m 9,4 C 11,6 C 0,0 km/h (0 Bft) 0,00 %
22.05.2015 19:00 10,9 C 90 % 1020,9 hPa 0,0 l/m 0,1 km/h (0 Bft) N 0,00 h 0,000 mm 0,0 UV-I 8 W/m 9,3 C 10,9 C 1,0 km/h (0 Bft) 0,00 %
22.05.2015 20:00 10,6 C 89 % 1021,2 hPa 0,0 l/m 0,0 km/h (0 Bft) N 0,00 h 0,000 mm 0,0 UV-I 0 W/m 8,9 C 10,6 C 0,0 km/h (0 Bft) 0,00 %
22.05.2015 21:00 10,3 C 93 % 1021,5 hPa 0,6 l/m 0,0 km/h (0 Bft) N 0,00 h 0,000 mm 0,0 UV-I 0 W/m 9,1 C 10,3 C 0,0 km/h (0 Bft) 0,00 %
22.05.2015 22:00 9,8 C 95 % 1021,4 hPa 0,3 l/m 0,0 km/h (0 Bft) N 0,00 h 0,000 mm 0,0 UV-I 0 W/m 9,0 C 9,8 C 0,0 km/h (0 Bft) 0,00 %
22.05.2015 23:00 9,5 C 95 % 1020,8 hPa 0,3 l/m 0,0 km/h (0 Bft) N 0,00 h 0,000 mm 0,0 UV-I 0 W/m 8,8 C 9,5 C 0,0 km/h (0 Bft) 0,00 %
23.05.2015 00:00 9,5 C 96 % 1020,4 hPa 0,3 l/m 0,0 km/h (0 Bft) N 0,00 h 0,000 mm 0,0 UV-I 0 W/m 8,9 C 9,5 C 0,0 km/h (0 Bft) 0,00 %
23.05.2015 01:00 9,5 C 97 % 1019,7 hPa 0,0 l/m 0,0 km/h (0 Bft) N 0,00 h 0,000 mm 0,0 UV-I 0 W/m 9,0 C 9,5 C 0,0 km/h (0 Bft) 0,00 %
23.05.2015 02:00 9,4 C 98 % 1018,8 hPa 0,3 l/m 0,0 km/h (0 Bft) N 0,00 h 0,000 mm 0,0 UV-I 0 W/m 9,0 C 9,4 C 0,0 km/h (0 Bft) 0,00 %
23.05.2015 03:00 9,3 C 98 % 1018,3 hPa 0,0 l/m 0,2 km/h (0 Bft) N 0,00 h 0,000 mm 0,0 UV-I 0 W/m 9,0 C 9,3 C 2,0 km/h (1 Bft) 0,00 %
23.05.2015 04:00 9,3 C 98 % 1017,9 hPa 0,0 l/m 0,0 km/h (0 Bft) N 0,00 h 0,000 mm 0,0 UV-I 0 W/m 9,0 C 9,3 C 0,0 km/h (0 Bft) 0,00 %
23.05.2015 05:00 9,3 C 98 % 1017,6 hPa 0,3 l/m 0,0 km/h (0 Bft) N 0,00 h 0,000 mm 0,0 UV-I 0 W/m 9,0 C 9,3 C 0,0 km/h (0 Bft) 0,00 %
23.05.2015 06:00 9,3 C 98 % 1017,3 hPa 0,9 l/m 0,6 km/h (0 Bft) S-SW 0,00 h 0,000 mm 0,0 UV-I 8 W/m 9,0 C 9,3 C 3,0 km/h (1 Bft) 0,00 %
23.05.2015 07:00 9,4 C 98 % 1017,3 hPa 0,0 l/m 0,3 km/h (0 Bft) W 0,00 h 0,000 mm 0,0 UV-I 39 W/m 9,0 C 9,4 C 1,0 km/h (0 Bft) 0,00 %
23.05.2015 08:00 9,7 C 97 % 1017,5 hPa 0,3 l/m 0,3 km/h (0 Bft) N 0,00 h 0,000 mm 1,0 UV-I 56 W/m 9,2 C 9,7 C 2,0 km/h (1 Bft) 0,00 %
23.05.2015 09:00 10,2 C 96 % 1017,1 hPa 0,3 l/m 1,6 km/h (1 Bft) W-SW 0,00 h 0,000 mm 1,0 UV-I 155 W/m 9,6 C 10,2 C 4,0 km/h (1 Bft) 0,00 %
23.05.2015 10:00 11,3 C 92 % 1016,7 hPa 0,3 l/m 2,2 km/h (1 Bft) W-SW 0,00 h 0,000 mm 2,0 UV-I 245 W/m 9,9 C 11,3 C 4,0 km/h (1 Bft) 0,00 %
23.05.2015 11:00 11,4 C 88 % 1016,4 hPa 0,0 l/m 1,6 km/h (1 Bft) W 0,00 h 0,000 mm 1,0 UV-I 164 W/m 9,4 C 11,4 C 4,0 km/h (1 Bft) 0,00 %
23.05.2015 12:00 11,1 C 89 % 1016,1 hPa 0,0 l/m 0,4 km/h (0 Bft) N 0,00 h 0,000 mm 1,0 UV-I 103 W/m 9,4 C 11,1 C 3,0 km/h (1 Bft) 0,00 %
23.05.2015 13:00 10,9 C 92 % 1016,1 hPa 1,2 l/m 0,1 km/h (0 Bft) N 0,00 h 0,000 mm 1,0 UV-I 107 W/m 9,5 C 10,9 C 1,0 km/h (0 Bft) 0,00 %
23.05.2015 14:00 10,9 C 93 % 1015,7 hPa 0,9 l/m 2,1 km/h (1 Bft) S-SW 0,00 h 0,000 mm 1,0 UV-I 136 W/m 9,8 C 10,9 C 5,0 km/h (1 Bft) 0,00 %
23.05.2015 15:00 10,9 C 94 % 1015,8 hPa 1,5 l/m 0,7 km/h (0 Bft) N 0,00 h 0,000 mm 1,0 UV-I 83 W/m 9,9 C 10,9 C 2,0 km/h (1 Bft) 0,00 %
23.05.2015 16:00 10,6 C 94 % 1015,9 hPa 1,8 l/m 0,0 km/h (0 Bft) N 0,00 h 0,000 mm 1,0 UV-I 73 W/m 9,7 C 10,6 C 0,0 km/h (0 Bft) 0,00 %
23.05.2015 17:00 10,3 C 96 % 1015,9 hPa 2,1 l/m 0,4 km/h (0 Bft) N 0,00 h 0,000 mm 0,0 UV-I 30 W/m 9,7 C 10,3 C 4,0 km/h (1 Bft) 0,00 %
23.05.2015 18:00 10,2 C 97 % 1015,9 hPa 2,1 l/m 1,8 km/h (1 Bft) SW 0,00 h 0,000 mm 0,0 UV-I 25 W/m 9,7 C 10,2 C 4,0 km/h (1 Bft) 0,00 %
23.05.2015 19:00 10,1 C 97 % 1016,1 hPa 1,2 l/m 0,6 km/h (0 Bft) S-SW 0,00 h 0,000 mm 0,0 UV-I 7 W/m 9,6 C 10,1 C 3,0 km/h (1 Bft) 0,00 %
23.05.2015 20:00 9,8 C 97 % 1016,5 hPa 1,8 l/m 0,7 km/h (0 Bft) W-SW 0,00 h 0,000 mm 0,0 UV-I 0 W/m 9,3 C 9,8 C 1,0 km/h (0 Bft) 0,00 %
23.05.2015 21:00 9,5 C 97 % 1016,7 hPa 0,6 l/m 2,3 km/h (1 Bft) SW 0,00 h 0,000 mm 0,0 UV-I 0 W/m 9,1 C 9,5 C 4,9 km/h (1 Bft) 0,00 %
23.05.2015 22:00 9,4 C 98 % 1017,1 hPa 1,5 l/m 1,3 km/h (1 Bft) N 0,00 h 0,000 mm 0,0 UV-I 0 W/m 9,2 C 9,4 C 4,0 km/h (1 Bft) 0,00 %
23.05.2015 23:00 9,3 C 99 % 1017,4 hPa 1,5 l/m 0,2 km/h (0 Bft) N 0,00 h 0,000 mm 0,0 UV-I 0 W/m 9,1 C 9,3 C 1,0 km/h (0 Bft) 0,00 %
24.05.2015 00:00 9,0 C 99 % 1017,5 hPa 1,2 l/m 1,4 km/h (1 Bft) W-SW 0,00 h 0,000 mm 0,0 UV-I 0 W/m 8,9 C 9,0 C 3,0 km/h (1 Bft) 0,00 %
24.05.2015 01:00 8,9 C 99 % 1017,5 hPa 0,0 l/m 0,3 km/h (0 Bft) N 0,00 h 0,000 mm 0,0 UV-I 0 W/m 8,8 C 8,9 C 2,0 km/h (1 Bft) 0,00 %
24.05.2015 02:00 8,8 C 99 % 1017,4 hPa 0,0 l/m 0,3 km/h (0 Bft) N 0,00 h 0,000 mm 0,0 UV-I 0 W/m 8,7 C 8,8 C 2,0 km/h (1 Bft) 0,00 %
24.05.2015 03:00 8,6 C 99 % 1017,4 hPa 0,0 l/m 0,3 km/h (0 Bft) N 0,00 h 0,000 mm 0,0 UV-I 0 W/m 8,5 C 8,6 C 2,0 km/h (1 Bft) 0,00 %
24.05.2015 04:00 8,3 C 99 % 1017,5 hPa 0,0 l/m 0,6 km/h (0 Bft) W-SW 0,00 h 0,000 mm 0,0 UV-I 0 W/m 8,2 C 8,3 C 2,0 km/h (1 Bft) 0,00 %
24.05.2015 05:00 8,3 C 99 % 1017,7 hPa 0,6 l/m 0,6 km/h (0 Bft) W-SW 0,00 h 0,000 mm 0,0 UV-I 0 W/m 8,1 C 8,3 C 3,0 km/h (1 Bft) 0,00 %
24.05.2015 06:00 8,3 C 99 % 1017,9 hPa 0,6 l/m 0,3 km/h (0 Bft) N 0,00 h 0,000 mm 0,0 UV-I 4 W/m 8,2 C 8,3 C 2,0 km/h (1 Bft) 0,00 %
24.05.2015 07:00 8,4 C 99 % 1018,2 hPa 0,3 l/m 0,9 km/h (0 Bft) W-SW 0,00 h 0,000 mm 0,0 UV-I 27 W/m 8,3 C 8,4 C 4,0 km/h (1 Bft) 0,00 %
24.05.2015 08:00 8,6 C 98 % 1018,5 hPa 0,0 l/m 0,0 km/h (0 Bft) N 0,00 h 0,000 mm 1,0 UV-I 55 W/m 8,3 C 8,6 C 0,0 km/h (0 Bft) 0,00 %
24.05.2015 09:00 8,8 C 98 % 1018,7 hPa 0,3 l/m 0,6 km/h (0 Bft) W-SW 0,00 h 0,000 mm 1,0 UV-I 67 W/m 8,5 C 8,8 C 2,0 km/h (1 Bft) 0,00 %
24.05.2015 10:00 9,6 C 96 % 1019,1 hPa 0,0 l/m 0,1 km/h (0 Bft) S-SW 0,00 h 0,000 mm 1,0 UV-I 98 W/m 9,0 C 9,6 C 1,0 km/h (0 Bft) 0,00 %
24.05.2015 11:00 10,1 C 95 % 1019,1 hPa 0,0 l/m 1,6 km/h (1 Bft) S 0,00 h 0,000 mm 1,0 UV-I 129 W/m 9,2 C 10,1 C 3,0 km/h (1 Bft) 0,00 %
24.05.2015 12:00 10,4 C 94 % 1019,1 hPa 0,0 l/m 1,4 km/h (1 Bft) SW 0,00 h 0,000 mm 1,3 UV-I 128 W/m 9,4 C 10,4 C 3,0 km/h (1 Bft) 0,00 %
24.05.2015 13:00 11,1 C 91 % 1019,2 hPa 0,0 l/m 0,4 km/h (0 Bft) N 0,00 h 0,000 mm 1,3 UV-I 218 W/m 9,7 C 11,1 C 3,0 km/h (1 Bft) 0,00 %
24.05.2015 14:00 11,4 C 89 % 1018,8 hPa 0,0 l/m 0,6 km/h (0 Bft) W-SW 0,00 h 0,000 mm 1,3 UV-I 175 W/m 9,6 C 11,4 C 2,0 km/h (1 Bft) 0,00 %
24.05.2015 15:00 11,6 C 88 % 1018,6 hPa 0,0 l/m 1,5 km/h (1 Bft) W-SW 0,00 h 0,000 mm 1,0 UV-I 147 W/m 9,7 C 11,6 C 3,0 km/h (1 Bft) 0,00 %
24.05.2015 16:00 11,9 C 87 % 1018,3 hPa 0,0 l/m 0,9 km/h (0 Bft) W-SW 0,00 h 0,000 mm 1,7 UV-I 194 W/m 9,8 C 11,9 C 3,0 km/h (1 Bft) 0,00 %
24.05.2015 17:00 12,0 C 85 % 1017,9 hPa 0,0 l/m 0,0 km/h (0 Bft) N 0,00 h 0,000 mm 1,0 UV-I 109 W/m 9,5 C 12,0 C 0,0 km/h (0 Bft) 0,00 %
24.05.2015 18:00 11,5 C 87 % 1017,7 hPa 0,0 l/m 0,0 km/h (0 Bft) N 0,00 h 0,000 mm 0,0 UV-I 33 W/m 9,4 C 11,5 C 0,0 km/h (0 Bft) 0,00 %
24.05.2015 19:00 11,1 C 91 % 1018,0 hPa 0,0 l/m 0,0 km/h (0 Bft) N 0,00 h 0,000 mm 0,0 UV-I 6 W/m 9,7 C 11,1 C 0,0 km/h (0 Bft) 0,00 %
24.05.2015 20:00 11,0 C 93 % 1017,9 hPa 0,0 l/m 0,0 km/h (0 Bft) N 0,00 h 0,000 mm 0,0 UV-I 0 W/m 9,9 C 11,0 C 0,0 km/h (0 Bft) 0,00 %
24.05.2015 21:00 10,8 C 94 % 1017,8 hPa 0,0 l/m 0,0 km/h (0 Bft) N 0,00 h 0,000 mm 0,0 UV-I 0 W/m 9,8 C 10,8 C 0,0 km/h (0 Bft) 0,00 %
24.05.2015 22:00 10,6 C 95 % 1018,0 hPa 0,0 l/m 0,0 km/h (0 Bft) N 0,00 h 0,000 mm 0,0 UV-I 0 W/m 9,8 C 10,6 C 0,0 km/h (0 Bft) 0,00 %
24.05.2015 23:00 10,4 C 96 % 1017,8 hPa 0,0 l/m 0,0 km/h (0 Bft) N 0,00 h 0,000 mm 0,0 UV-I 0 W/m 9,8 C 10,4 C 0,0 km/h (0 Bft) 0,00 %
Min-Datum _ 21.05.15 18.05.15 18.05.15 - 18.05.15 - - - - - 21.05.15 21.05.15 18.05.15 18.05.15
_ Min-Zeit 06:00 14:30 19:45 - 00:00 - - - - - 06:00 06:00 00:00 00:00
Minimum _ 6,8 C 43 % 1004,1 hPa - 0,0 km/h (0 Bft) - - - - - 6,4 C 6,8 C 0,0 km/h (0 Bft) 0,00 %
Max-Datum _ 18.05.15 18.05.15 22.05.15 20.05.15 20.05.15 - 18.05.15 18.05.15 18.05.15 18.05.15 19.05.15 18.05.15 18.05.15 18.05.15
_ Max-Zeit 16:15 02:00 02:30 08:15 09:45 - 06:00 00:00 11:45 14:30 05:00 17:45 12:45 00:00
Maximum _ 23,3 C 99 % 1025,2 hPa 2,4 l/m 10,4 km/h
S-SW (2 Bft)
- 0,25 h 0,000 mm 6,0 UV-I 888 W/m 13,4 C 23,2 C 15,8 km/h
O (3 Bft)
0,00 %
Durchschnitt _ 11,3 C 90 % 1016,2 hPa #53,7 l/m 0,8 km/h (0 Bft) W-SW #14:15 h #0,000 mm 1,4 UV-I 167 W/m 9,5 C 11,3 C 1,9 km/h (1 Bft) 0,00 %